Time;durP1;ratioP1;P1;durP2;ratioP2;P2;SDS_P1;SDS_P2;PMS_P1;PMS_P2;Temp;Humidity;BMP_temperature;BMP_pressure;BME280_temperature;BME280_humidity;BME280_pressure;Samples;Min_cycle;Max_cycle;Signal;HPM_P1;HPM_P2
2022/06/20 00:01:43;;;;;;;2.30;2.08;;;20.90;99.90;;;;;;5094172;28;20178;-83
2022/06/20 00:04:14;;;;;;;3.15;2.17;;;20.90;99.90;;;;;;5095975;28;20265;-82
2022/06/20 00:06:39;;;;;;;4.30;2.20;;;20.80;99.90;;;;;;5096388;28;20186;-83
2022/06/20 00:09:05;;;;;;;4.18;2.40;;;20.70;99.90;;;;;;5096087;28;20182;-82
2022/06/20 00:11:36;;;;;;;3.00;2.00;;;20.60;99.90;;;;;;5096314;28;20659;-83
2022/06/20 00:14:02;;;;;;;4.82;2.05;;;20.60;99.90;;;;;;5096431;28;20166;-83
2022/06/20 00:16:32;;;;;;;4.00;2.70;;;20.60;99.90;;;;;;5095113;28;20179;-83
2022/06/20 00:18:59;;;;;;;2.40;2.20;;;20.50;99.90;;;;;;5095978;28;20689;-83
2022/06/20 00:21:24;;;;;;;2.63;2.10;;;20.50;99.90;;;;;;5095991;28;20178;-83
2022/06/20 00:23:51;;;;;;;3.17;2.17;;;20.40;99.90;;;;;;5094953;28;20288;-83
2022/06/20 00:26:17;;;;;;;4.82;2.15;;;20.40;99.90;;;;;;5095774;28;20198;-83
2022/06/20 00:28:43;;;;;;;2.50;2.30;;;20.50;99.90;;;;;;5094320;28;20186;-83
2022/06/20 00:31:09;;;;;;;1.88;1.60;;;20.40;99.90;;;;;;5094543;28;20167;-83
2022/06/20 00:33:35;;;;;;;2.45;2.20;;;20.40;99.90;;;;;;5095550;28;20191;-83
2022/06/20 00:36:01;;;;;;;2.78;2.15;;;20.40;99.90;;;;;;5094695;28;20176;-83
2022/06/20 00:38:28;;;;;;;2.85;2.13;;;20.40;99.90;;;;;;5095373;28;20190;-83
2022/06/20 00:40:57;;;;;;;3.05;1.83;;;20.40;99.90;;;;;;5094710;28;20649;-83
2022/06/20 00:43:30;;;;;;;3.97;2.25;;;20.40;99.90;;;;;;5095492;28;20214;-83
2022/06/20 00:45:59;;;;;;;3.83;2.13;;;20.30;99.90;;;;;;5095712;28;20182;-83
2022/06/20 00:48:37;;;;;;;2.85;2.47;;;20.30;99.90;;;;;;5095488;28;20198;-83
2022/06/20 00:51:12;;;;;;;1.90;1.77;;;20.30;99.90;;;;;;5095192;28;20257;-83
2022/06/20 00:53:47;;;;;;;3.13;2.03;;;20.30;99.90;;;;;;5095347;28;20189;-82
2022/06/20 00:56:53;;;;;;;2.45;2.13;;;20.30;99.90;;;;;;5094600;28;20626;-82
2022/06/20 00:59:45;;;;;;;2.55;2.30;;;20.30;99.90;;;;;;5088199;28;20221;-83
2022/06/20 01:02:12;;;;;;;2.60;1.83;;;20.20;99.90;;;;;;5095549;28;20175;-82
2022/06/20 01:04:44;;;;;;;3.88;2.40;;;20.20;99.90;;;;;;5093697;28;20273;-83
2022/06/20 01:07:18;;;;;;;2.83;2.38;;;20.10;99.90;;;;;;5095414;28;20179;-82
2022/06/20 01:09:48;;;;;;;2.42;2.20;;;20.10;99.90;;;;;;5094312;28;20638;-82
2022/06/20 01:12:18;;;;;;;2.05;1.80;;;20.10;99.90;;;;;;5095132;28;20712;-82
2022/06/20 01:14:43;;;;;;;5.53;2.17;;;20.10;99.90;;;;;;5094828;28;20635;-83
2022/06/20 01:17:37;;;;;;;2.47;1.90;;;20.10;99.90;;;;;;5094752;28;20200;-83
2022/06/20 01:20:18;;;;;;;2.95;2.30;;;20.10;99.90;;;;;;5095066;28;20210;-82
2022/06/20 01:22:55;;;;;;;2.92;2.42;;;20.10;99.90;;;;;;5094050;28;20197;-83
2022/06/20 01:25:48;;;;;;;2.72;1.90;;;20.10;99.90;;;;;;5094809;28;20166;-83
2022/06/20 01:28:22;;;;;;;3.40;2.13;;;20.10;99.90;;;;;;5093380;28;20227;-83
2022/06/20 01:30:48;;;;;;;2.53;2.10;;;20.00;99.90;;;;;;5095140;28;20229;-82
2022/06/20 01:33:16;;;;;;;3.65;1.75;;;20.00;99.90;;;;;;5075979;28;20195;-82
2022/06/20 01:38:28;;;;;;;3.10;2.13;;;20.00;99.90;;;;;;5094580;28;20194;-83
2022/06/20 01:43:40;;;;;;;2.55;1.58;;;20.10;99.90;;;;;;5096118;28;20244;-82
2022/06/20 01:46:09;;;;;;;2.13;1.70;;;20.10;99.90;;;;;;5099416;28;20251;-82
2022/06/20 01:48:38;;;;;;;2.25;1.88;;;20.10;99.90;;;;;;5097099;28;20200;-83
2022/06/20 01:51:08;;;;;;;2.08;1.88;;;20.10;99.90;;;;;;5101275;28;20179;-82
2022/06/20 01:53:34;;;;;;;3.65;2.40;;;20.10;99.90;;;;;;5094499;28;20632;-83
2022/06/20 01:56:01;;;;;;;1.88;1.67;;;20.10;99.90;;;;;;5093289;28;20174;-83
2022/06/20 01:58:36;;;;;;;3.42;2.60;;;20.00;99.90;;;;;;5093025;28;20170;-83
2022/06/20 02:01:03;;;;;;;2.92;1.98;;;20.10;99.90;;;;;;5094519;28;20158;-83
2022/06/20 02:03:33;;;;;;;2.05;1.85;;;20.00;99.90;;;;;;5093960;28;20235;-83
2022/06/20 02:06:00;;;;;;;2.80;2.15;;;20.00;99.90;;;;;;5094022;28;20175;-83
2022/06/20 02:08:25;;;;;;;3.35;1.98;;;20.00;99.90;;;;;;5093525;28;20257;-84
2022/06/20 02:11:26;;;;;;;2.90;1.95;;;19.90;99.90;;;;;;5092835;28;20210;-82
2022/06/20 02:13:57;;;;;;;2.65;2.00;;;19.90;99.90;;;;;;5094163;28;20659;-83
2022/06/20 02:16:24;;;;;;;8.32;2.03;;;19.80;99.90;;;;;;5094323;28;20155;-82
2022/06/20 02:18:54;;;;;;;2.28;1.92;;;19.80;99.90;;;;;;5092585;28;20204;-82
2022/06/20 02:21:24;;;;;;;2.58;1.90;;;19.70;99.90;;;;;;5094563;28;20205;-83
2022/06/20 02:24:03;;;;;;;2.10;1.90;;;19.70;99.90;;;;;;5093526;28;20171;-82
2022/06/20 02:26:30;;;;;;;5.72;2.10;;;19.70;99.90;;;;;;5095512;28;20231;-83
2022/06/20 02:29:09;;;;;;;3.45;1.85;;;19.60;99.90;;;;;;5095316;28;20222;-83
2022/06/20 02:31:35;;;;;;;1.70;1.60;;;19.70;99.90;;;;;;5075190;28;20229;-82
2022/06/20 02:34:02;;;;;;;3.17;2.53;;;19.70;99.90;;;;;;5092145;28;20221;-82
2022/06/20 02:36:29;;;;;;;3.22;2.30;;;19.70;99.90;;;;;;5093756;28;20182;-82
2022/06/20 02:38:55;;;;;;;3.97;2.92;;;19.70;99.90;;;;;;5093687;28;20265;-83
2022/06/20 02:41:24;;;;;;;1.85;1.70;;;19.70;99.90;;;;;;5093374;28;20198;-82
2022/06/20 02:43:59;;;;;;;3.63;2.20;;;19.70;99.90;;;;;;5093397;28;20186;-82
2022/06/20 02:46:27;;;;;;;3.08;2.42;;;19.70;99.90;;;;;;5092878;28;20633;-83
2022/06/20 02:48:55;;;;;;;5.82;2.13;;;19.70;99.90;;;;;;5092830;28;20178;-83
2022/06/20 02:51:26;;;;;;;4.53;1.98;;;19.70;99.90;;;;;;5092382;28;20699;-82
2022/06/20 02:53:58;;;;;;;2.15;1.95;;;19.70;99.90;;;;;;5093248;28;20186;-82
2022/06/20 02:56:27;;;;;;;3.35;2.15;;;19.60;99.90;;;;;;5093161;28;20170;-83
2022/06/20 02:59:06;;;;;;;3.08;1.88;;;19.60;99.90;;;;;;5092672;28;20193;-82
2022/06/20 03:02:01;;;;;;;2.20;1.98;;;19.60;99.90;;;;;;5092863;28;20650;-82
2022/06/20 03:04:30;;;;;;;4.43;2.28;;;19.60;99.90;;;;;;5092763;28;20178;-83
2022/06/20 03:07:02;;;;;;;3.60;2.83;;;19.60;99.90;;;;;;5093033;28;20257;-82
2022/06/20 03:09:31;;;;;;;2.60;2.17;;;19.60;99.90;;;;;;5092738;28;20223;-82
2022/06/20 03:11:57;;;;;;;3.78;2.13;;;19.60;99.90;;;;;;5092339;28;20194;-82
2022/06/20 03:14:30;;;;;;;2.90;2.00;;;19.60;99.90;;;;;;5092002;28;20643;-83
2022/06/20 03:16:57;;;;;;;3.30;2.38;;;19.60;99.90;;;;;;5091032;28;20185;-83
2022/06/20 03:19:27;;;;;;;3.33;2.40;;;19.60;99.90;;;;;;5090745;28;20185;-83
2022/06/20 03:21:57;;;;;;;2.25;2.05;;;19.60;99.90;;;;;;5090458;28;20669;-82
2022/06/20 03:24:24;;;;;;;2.35;1.90;;;19.60;99.90;;;;;;5091148;28;20183;-83
2022/06/20 03:26:51;;;;;;;3.20;2.25;;;19.60;99.90;;;;;;5090148;28;20257;-82
2022/06/20 03:29:18;;;;;;;3.42;2.10;;;19.60;99.90;;;;;;5073458;28;20230;-82
2022/06/20 03:31:44;;;;;;;3.65;2.20;;;19.60;99.90;;;;;;5091336;28;20712;-83
2022/06/20 03:34:11;;;;;;;2.55;1.83;;;19.60;99.90;;;;;;5089650;28;20224;-83
2022/06/20 03:36:37;;;;;;;3.92;2.55;;;19.60;99.90;;;;;;5091723;28;20170;-83
2022/06/20 03:39:05;;;;;;;3.08;2.05;;;19.60;99.90;;;;;;5094810;28;20182;-83
2022/06/20 03:41:32;;;;;;;2.60;1.92;;;19.60;99.90;;;;;;5084619;28;20266;-83
2022/06/20 03:44:00;;;;;;;2.47;2.10;;;19.60;99.90;;;;;;5097517;28;20243;-83
2022/06/20 03:46:30;;;;;;;3.15;2.22;;;19.60;99.90;;;;;;5077930;28;20185;-83
2022/06/20 03:49:15;;;;;;;2.45;2.20;;;19.60;99.90;;;;;;5095165;28;20179;-83
2022/06/20 03:51:55;;;;;;;8.63;2.08;;;19.60;99.90;;;;;;5085727;28;20194;-85
2022/06/20 03:55:06;;;;;;;3.03;2.20;;;19.60;99.90;;;;;;5108694;28;20163;-83
2022/06/20 03:57:39;;;;;;;2.50;2.20;;;19.60;99.90;;;;;;5120865;28;20181;-81
2022/06/20 04:00:08;;;;;;;6.25;2.38;;;19.60;99.90;;;;;;5121326;28;20167;-83
2022/06/20 04:02:40;;;;;;;3.95;2.47;;;19.70;99.90;;;;;;5120825;28;20191;-83
2022/06/20 04:05:05;;;;;;;4.25;2.60;;;19.70;99.90;;;;;;5105575;28;20202;-83
2022/06/20 04:07:39;;;;;;;2.45;2.17;;;19.80;99.90;;;;;;5100323;28;20197;-83
2022/06/20 04:13:23;;;;;;;2.20;2.00;;;20.00;99.90;;;;;;5121181;28;20213;-82
2022/06/20 04:16:03;;;;;;;5.68;2.88;;;20.10;99.90;;;;;;5120820;28;20186;-84
2022/06/20 04:18:58;;;;;;;4.57;2.50;;;20.20;99.90;;;;;;5102246;28;20158;-83
2022/06/20 04:21:38;;;;;;;2.78;2.28;;;20.30;99.90;;;;;;5096357;28;20170;-83
2022/06/20 04:24:10;;;;;;;5.85;2.22;;;20.40;99.90;;;;;;5096082;28;20167;-83
2022/06/20 04:26:53;;;;;;;5.05;2.25;;;20.50;99.90;;;;;;5098915;28;20171;-83
2022/06/20 04:29:31;;;;;;;5.30;2.30;;;20.60;99.90;;;;;;5096344;28;20230;-83
2022/06/20 04:32:09;;;;;;;3.47;2.17;;;20.60;99.90;;;;;;5096241;28;20212;-83
2022/06/20 04:34:46;;;;;;;4.88;2.10;;;20.70;99.90;;;;;;5096156;28;20167;-83
2022/06/20 04:37:33;;;;;;;3.97;3.03;;;20.80;99.90;;;;;;5096275;28;20162;-83
2022/06/20 04:40:11;;;;;;;3.15;2.10;;;20.90;99.90;;;;;;5094806;28;20250;-83
2022/06/20 04:42:45;;;;;;;2.45;2.08;;;21.00;99.90;;;;;;5095600;28;20528;-83
2022/06/20 04:45:14;;;;;;;2.00;1.90;;;21.10;99.90;;;;;;5095520;28;20198;-83
2022/06/20 04:47:52;;;;;;;2.70;2.05;;;21.30;99.90;;;;;;5095129;28;20249;-83
2022/06/20 04:50:21;;;;;;;2.95;2.10;;;21.40;99.90;;;;;;5096239;28;20173;-83
2022/06/20 04:52:49;;;;;;;4.20;2.17;;;21.50;99.90;;;;;;5094458;28;20209;-83
2022/06/20 04:55:19;;;;;;;4.55;2.97;;;21.60;99.90;;;;;;5094561;28;20187;-83
2022/06/20 04:57:46;;;;;;;4.85;2.30;;;21.70;99.90;;;;;;5095653;28;20159;-83
2022/06/20 05:00:24;;;;;;;3.70;2.30;;;21.80;99.90;;;;;;5095672;28;20261;-83
2022/06/20 05:02:52;;;;;;;3.65;2.17;;;21.80;99.90;;;;;;5095503;28;20265;-84
2022/06/20 05:05:23;;;;;;;2.63;2.22;;;21.90;99.90;;;;;;5095570;28;20261;-83
2022/06/20 05:07:49;;;;;;;3.33;2.25;;;22.00;99.90;;;;;;5095558;28;20159;-83
2022/06/20 05:10:21;;;;;;;3.28;2.35;;;22.10;99.90;;;;;;5095272;28;20692;-83
2022/06/20 05:13:01;;;;;;;2.63;1.98;;;22.10;99.90;;;;;;5095151;28;20239;-83
2022/06/20 05:15:40;;;;;;;3.35;2.05;;;22.20;99.90;;;;;;5095130;28;20619;-82
2022/06/20 05:18:21;;;;;;;3.17;2.17;;;22.30;99.90;;;;;;5095116;28;20236;-84
2022/06/20 05:20:47;;;;;;;2.80;2.35;;;22.30;99.90;;;;;;5095380;28;20163;-83
2022/06/20 05:23:31;;;;;;;2.58;2.30;;;22.30;99.90;;;;;;5095173;28;20179;-83
2022/06/20 05:26:00;;;;;;;6.97;2.60;;;22.40;99.90;;;;;;5094636;28;20194;-83
2022/06/20 05:28:26;;;;;;;7.38;3.05;;;22.50;99.90;;;;;;5095094;28;20166;-83
2022/06/20 05:30:52;;;;;;;3.55;2.55;;;22.60;99.90;;;;;;5095147;28;20227;-83
2022/06/20 05:33:45;;;;;;;3.47;2.30;;;22.70;99.90;;;;;;5094782;28;20732;-83
2022/06/20 05:36:23;;;;;;;3.17;2.40;;;22.70;99.90;;;;;;5095141;28;20182;-83
2022/06/20 05:38:53;;;;;;;3.53;2.67;;;22.90;99.90;;;;;;5093593;28;20185;-83
2022/06/20 05:41:20;;;;;;;7.57;2.10;;;23.00;99.90;;;;;;5094980;28;20178;-83
2022/06/20 05:43:46;;;;;;;5.95;2.40;;;23.10;99.90;;;;;;5094736;28;20177;-83
2022/06/20 05:46:24;;;;;;;4.43;2.60;;;23.20;99.90;;;;;;5092216;28;20620;-83
2022/06/20 05:49:25;;;;;;;2.10;1.90;;;23.30;99.90;;;;;;5082657;28;20219;-83
2022/06/20 05:51:52;;;;;;;2.95;2.15;;;23.40;99.90;;;;;;5090945;28;20654;-85
2022/06/20 05:54:37;;;;;;;3.33;2.22;;;23.40;99.90;;;;;;5091233;28;20190;-85
2022/06/20 05:57:12;;;;;;;2.22;2.00;;;23.50;99.90;;;;;;5101102;28;20576;-85
2022/06/20 06:00:04;;;;;;;2.15;1.77;;;23.60;99.90;;;;;;5089944;28;20252;-86
2022/06/20 06:02:38;;;;;;;2.78;2.30;;;23.70;99.90;;;;;;5091340;28;20183;-86
2022/06/20 06:05:07;;;;;;;2.50;2.00;;;23.80;99.90;;;;;;5092059;28;20670;-86
2022/06/20 06:07:41;;;;;;;4.53;2.70;;;23.90;99.90;;;;;;5107857;28;20182;-86
2022/06/20 06:10:37;;;;;;;3.22;1.92;;;24.00;99.90;;;;;;5091584;28;20220;-86
2022/06/20 06:13:13;;;;;;;4.25;2.15;;;24.00;99.90;;;;;;5091753;28;20209;-86
2022/06/20 06:18:36;;;;;;;3.75;1.95;;;24.10;99.90;;;;;;5092210;28;20549;-87
2022/06/20 06:21:03;;;;;;;2.17;1.98;;;24.20;99.90;;;;;;5091742;28;20190;-87
2022/06/20 06:23:29;;;;;;;4.07;2.30;;;24.20;99.90;;;;;;5092667;28;20187;-86
2022/06/20 06:25:55;;;;;;;3.17;2.38;;;24.20;99.90;;;;;;5091900;28;20622;-86
2022/06/20 06:28:23;;;;;;;4.65;2.60;;;24.20;99.90;;;;;;5090322;28;20190;-86
2022/06/20 06:31:06;;;;;;;3.72;2.65;;;24.40;99.90;;;;;;5089850;28;20241;-87
2022/06/20 06:33:41;;;;;;;2.90;2.22;;;24.50;99.90;;;;;;5092050;28;20331;-87
2022/06/20 06:36:14;;;;;;;2.80;1.92;;;24.50;99.90;;;;;;5092746;28;20182;-87
2022/06/20 06:39:17;;;;;;;2.70;2.05;;;24.50;99.90;;;;;;5091431;28;20182;-85
2022/06/20 06:41:47;;;;;;;2.95;2.17;;;24.60;99.90;;;;;;5076228;28;20284;-86
2022/06/20 06:44:18;;;;;;;2.78;2.25;;;24.80;99.90;;;;;;5107205;28;20186;-86
2022/06/20 06:46:48;;;;;;;3.72;2.10;;;24.90;99.90;;;;;;5091716;28;20273;-86
2022/06/20 06:49:23;;;;;;;3.47;2.25;;;24.80;99.90;;;;;;5090985;28;20186;-85
2022/06/20 06:52:01;;;;;;;2.50;1.92;;;24.90;99.90;;;;;;5107392;28;20569;-86
2022/06/20 06:54:43;;;;;;;2.47;2.15;;;25.00;99.90;;;;;;5091672;28;20178;-87
2022/06/20 06:57:45;;;;;;;4.60;2.53;;;25.00;99.90;;;;;;5091545;28;20210;-87
2022/06/20 07:00:29;;;;;;;2.70;2.38;;;24.70;99.90;;;;;;5079804;28;20190;-87
2022/06/20 07:03:04;;;;;;;3.25;2.47;;;24.80;99.90;;;;;;5104876;28;20190;-85
2022/06/20 07:05:37;;;;;;;5.70;2.65;;;24.70;99.90;;;;;;5091493;28;20184;-88
2022/06/20 07:08:11;;;;;;;2.92;2.15;;;24.70;99.90;;;;;;5091330;28;20635;-86
2022/06/20 07:10:56;;;;;;;2.67;2.38;;;24.70;99.90;;;;;;5107087;28;20188;-86
2022/06/20 07:13:39;;;;;;;3.00;2.28;;;24.90;99.90;;;;;;5094246;28;20212;-85
2022/06/20 07:16:17;;;;;;;3.33;2.72;;;25.10;99.90;;;;;;5095716;28;20182;-85
2022/06/20 07:18:50;;;;;;;3.55;2.95;;;25.30;99.90;;;;;;5086052;28;20568;-85
2022/06/20 07:21:20;;;;;;;3.42;2.60;;;25.30;99.90;;;;;;5111054;28;20174;-85
2022/06/20 07:23:55;;;;;;;2.97;2.13;;;25.50;99.90;;;;;;5094429;28;20237;-85
2022/06/20 07:26:22;;;;;;;3.08;2.47;;;25.60;99.90;;;;;;5095499;28;20186;-87
2022/06/20 07:29:15;;;;;;;3.30;2.15;;;25.60;99.90;;;;;;5094060;28;20186;-86
2022/06/20 07:31:54;;;;;;;4.32;2.65;;;25.50;99.90;;;;;;5095635;28;20230;-86
2022/06/20 07:34:37;;;;;;;2.97;2.17;;;25.60;99.90;;;;;;5094986;28;20214;-85
2022/06/20 07:37:08;;;;;;;2.55;2.15;;;25.60;99.90;;;;;;5093952;28;20201;-85
2022/06/20 07:39:41;;;;;;;3.55;2.50;;;25.50;99.90;;;;;;5110285;28;20247;-85
2022/06/20 07:42:14;;;;;;;3.38;2.30;;;25.50;99.90;;;;;;5092260;28;20183;-85
2022/06/20 07:44:44;;;;;;;4.75;2.80;;;25.50;99.90;;;;;;5110583;28;20190;-85
2022/06/20 07:47:17;;;;;;;4.18;2.65;;;25.50;99.90;;;;;;5110551;28;20182;-85
2022/06/20 07:50:12;;;;;;;5.80;3.28;;;25.70;99.90;;;;;;5096278;28;20167;-85
2022/06/20 07:52:44;;;;;;;3.65;2.55;;;25.80;99.90;;;;;;5087295;28;20221;-85
2022/06/20 07:55:14;;;;;;;5.82;2.97;;;25.80;99.90;;;;;;5094010;28;20187;-85
2022/06/20 07:57:45;;;;;;;3.55;2.80;;;25.80;99.90;;;;;;5102492;28;20191;-85
2022/06/20 08:00:23;;;;;;;2.63;2.38;;;25.80;99.90;;;;;;5104135;28;20175;-84
2022/06/20 08:02:58;;;;;;;4.55;2.65;;;25.90;99.90;;;;;;5090751;28;20182;-84
2022/06/20 08:05:44;;;;;;;2.55;2.30;;;25.90;99.90;;;;;;5111374;28;20196;-86
2022/06/20 08:08:17;;;;;;;4.40;3.13;;;25.90;99.90;;;;;;5088731;28;20201;-85
2022/06/20 08:10:56;;;;;;;3.17;2.42;;;26.10;99.90;;;;;;5087883;28;20198;-84
2022/06/20 08:13:31;;;;;;;2.67;2.30;;;26.20;99.90;;;;;;5081573;28;20202;-85
2022/06/20 08:16:19;;;;;;;3.92;2.97;;;26.30;99.90;;;;;;5110395;28;20201;-85
2022/06/20 08:18:45;;;;;;;3.97;2.85;;;26.40;99.90;;;;;;5110467;28;20202;-86
2022/06/20 08:21:32;;;;;;;3.38;2.78;;;26.40;99.90;;;;;;5094406;28;20186;-84
2022/06/20 08:24:04;;;;;;;3.28;2.78;;;26.60;99.90;;;;;;5085018;28;20627;-85
2022/06/20 08:26:39;;;;;;;3.72;2.90;;;26.60;99.90;;;;;;5094234;28;20202;-85
2022/06/20 08:29:16;;;;;;;6.72;2.60;;;26.70;99.90;;;;;;5093601;28;20200;-84
2022/06/20 08:31:50;;;;;;;2.80;2.30;;;26.70;99.20;;;;;;5092715;28;20201;-86
2022/06/20 08:34:20;;;;;;;3.13;2.70;;;26.70;99.60;;;;;;5094452;28;20161;-85
2022/06/20 08:36:50;;;;;;;12.57;7.63;;;26.70;99.30;;;;;;5094810;28;20246;-85
2022/06/20 08:39:33;;;;;;;2.92;2.67;;;26.60;99.40;;;;;;5110517;28;20175;-85
2022/06/20 08:42:25;;;;;;;7.32;3.30;;;26.60;99.50;;;;;;5094428;28;20162;-85
2022/06/20 08:44:57;;;;;;;3.53;3.10;;;26.70;99.20;;;;;;5110429;28;20175;-85
2022/06/20 08:47:37;;;;;;;7.32;3.40;;;26.80;99.60;;;;;;5095374;28;20198;-86
2022/06/20 08:50:09;;;;;;;3.15;2.80;;;26.80;99.00;;;;;;5095676;28;20165;-86
2022/06/20 08:52:50;;;;;;;3.10;2.80;;;26.80;98.80;;;;;;5095742;28;20190;-86
2022/06/20 08:55:53;;;;;;;3.72;2.72;;;27.00;98.60;;;;;;5095638;28;20197;-85
2022/06/20 08:58:43;;;;;;;2.50;2.30;;;26.80;98.40;;;;;;5096316;28;20162;-85
2022/06/20 09:01:33;;;;;;;3.85;3.20;;;26.80;99.30;;;;;;5111766;28;20177;-85
2022/06/20 09:04:31;;;;;;;3.40;3.05;;;26.80;99.50;;;;;;5111277;28;20261;-85
2022/06/20 09:07:15;;;;;;;4.53;3.08;;;27.00;98.80;;;;;;5095892;28;20239;-85
2022/06/20 09:10:02;;;;;;;5.63;2.83;;;27.00;98.60;;;;;;5095450;28;20151;-85
2022/06/20 09:13:01;;;;;;;3.13;2.67;;;27.30;99.70;;;;;;5111119;28;20224;-86
2022/06/20 09:15:36;;;;;;;3.28;2.80;;;27.50;98.10;;;;;;5111034;28;20171;-86
2022/06/20 09:18:35;;;;;;;5.85;3.35;;;27.50;97.50;;;;;;5095241;28;20187;-85
2022/06/20 09:21:39;;;;;;;3.38;3.08;;;27.40;97.30;;;;;;5086409;28;20238;-86
2022/06/20 09:24:11;;;;;;;3.72;2.78;;;27.60;95.70;;;;;;5114831;28;20166;-86
2022/06/20 09:26:54;;;;;;;5.25;2.42;;;27.70;93.40;;;;;;5106207;28;20184;-84
2022/06/20 09:29:46;;;;;;;3.60;2.80;;;27.80;93.70;;;;;;5107749;28;20374;-83
2022/06/20 09:32:26;;;;;;;3.05;2.40;;;28.00;93.20;;;;;;5113317;28;20248;-85
2022/06/20 09:35:12;;;;;;;8.55;6.28;;;28.10;92.50;;;;;;5113294;28;20311;-86
2022/06/20 09:38:20;;;;;;;4.00;2.72;;;28.10;93.70;;;;;;5094457;28;20189;-85
2022/06/20 09:41:01;;;;;;;3.13;2.83;;;28.20;92.60;;;;;;5095186;28;20616;-86
2022/06/20 09:43:51;;;;;;;3.35;2.80;;;28.10;91.30;;;;;;5111023;28;20197;-86
2022/06/20 09:46:49;;;;;;;4.35;3.15;;;28.10;91.90;;;;;;5110778;28;20193;-85
2022/06/20 09:49:59;;;;;;;4.65;2.63;;;28.20;92.80;;;;;;5094749;28;20155;-85
2022/06/20 09:52:48;;;;;;;3.88;2.95;;;28.50;93.50;;;;;;5094090;28;20201;-85
2022/06/20 09:55:26;;;;;;;3.63;2.65;;;28.60;91.20;;;;;;5110882;28;20175;-85
2022/06/20 09:58:00;;;;;;;3.75;2.83;;;28.70;92.00;;;;;;5107468;28;20151;-85
2022/06/20 10:00:39;;;;;;;3.05;2.53;;;28.90;93.50;;;;;;5124443;28;20174;-85
2022/06/20 10:03:20;;;;;;;4.70;3.22;;;29.20;92.00;;;;;;5110028;28;20208;-85
2022/06/20 10:06:02;;;;;;;4.20;2.67;;;29.40;92.40;;;;;;5108839;28;20210;-85
2022/06/20 10:09:06;;;;;;;5.35;3.25;;;29.70;92.60;;;;;;5118996;28;20163;-86
2022/06/20 10:11:51;;;;;;;7.53;2.80;;;29.90;91.00;;;;;;5135399;27;20180;-91
2022/06/20 10:14:26;;;;;;;3.85;3.00;;;29.70;91.70;;;;;;5135490;27;20174;-87
2022/06/20 10:16:57;;;;;;;3.85;3.00;;;29.80;91.30;;;;;;5113925;28;20181;-85
2022/06/20 10:19:34;;;;;;;3.47;2.83;;;29.90;92.00;;;;;;5127827;28;20154;-86
2022/06/20 10:22:08;;;;;;;4.38;2.92;;;30.20;90.90;;;;;;5115226;28;20181;-86
2022/06/20 10:24:52;;;;;;;3.53;2.67;;;30.20;88.20;;;;;;5118850;28;20158;-92
2022/06/20 10:27:24;;;;;;;5.20;3.33;;;30.40;90.00;;;;;;5118817;28;20173;-85
2022/06/20 10:30:10;;;;;;;3.33;3.03;;;30.40;90.10;;;;;;5103103;28;20229;-85
2022/06/20 10:32:54;;;;;;;6.03;2.83;;;30.40;90.00;;;;;;5093899;28;20244;-86
2022/06/20 10:35:35;;;;;;;4.55;3.05;;;30.40;88.30;;;;;;5094553;28;20151;-86
2022/06/20 10:38:33;;;;;;;2.45;2.22;;;30.50;90.70;;;;;;5094247;28;20212;-87
2022/06/20 10:41:08;;;;;;;5.35;2.78;;;30.70;87.70;;;;;;5109645;28;20499;-85
2022/06/20 10:43:57;;;;;;;7.28;4.00;;;30.70;88.30;;;;;;5109850;28;20170;-85
2022/06/20 10:46:44;;;;;;;3.30;2.60;;;30.70;89.80;;;;;;5093501;28;20250;-85
2022/06/20 10:49:25;;;;;;;4.00;3.13;;;30.80;90.00;;;;;;5095528;28;20615;-84
2022/06/20 10:52:28;;;;;;;3.85;2.60;;;30.80;86.90;;;;;;5110844;28;20210;-89
2022/06/20 10:55:09;;;;;;;6.13;3.13;;;30.90;89.00;;;;;;5111146;28;20724;-87
2022/06/20 10:57:53;;;;;;;3.25;2.85;;;31.10;86.20;;;;;;5096055;28;20146;-86
2022/06/20 11:00:24;;;;;;;4.20;2.75;;;31.00;83.90;;;;;;5110827;28;20178;-86
2022/06/20 11:03:26;;;;;;;2.97;2.55;;;31.00;86.10;;;;;;5077426;28;20291;-87
2022/06/20 11:06:17;;;;;;;3.60;2.80;;;31.10;81.20;;;;;;5094401;28;20158;-87
2022/06/20 11:08:57;;;;;;;3.45;2.60;;;31.10;83.30;;;;;;5093743;28;20159;-87
2022/06/20 11:11:30;;;;;;;3.97;2.50;;;31.30;81.90;;;;;;5093697;28;20245;-84
2022/06/20 11:14:30;;;;;;;3.72;2.88;;;31.40;80.10;;;;;;5093486;28;20198;-88
2022/06/20 11:17:17;;;;;;;3.28;2.60;;;31.50;79.90;;;;;;5088054;28;20182;-87
2022/06/20 11:20:13;;;;;;;3.15;2.50;;;31.50;81.70;;;;;;5093421;28;20170;-87
2022/06/20 11:22:47;;;;;;;3.15;2.58;;;31.50;78.90;;;;;;5093632;28;20245;-85
2022/06/20 11:25:18;;;;;;;4.50;2.42;;;31.50;78.30;;;;;;5110201;28;20575;-87
2022/06/20 11:28:17;;;;;;;3.28;2.30;;;31.30;79.10;;;;;;5095592;28;20163;-86
2022/06/20 11:31:20;;;;;;;2.55;2.35;;;31.30;81.50;;;;;;5094345;28;20351;-88
2022/06/20 11:34:26;;;;;;;3.13;2.58;;;31.30;81.90;;;;;;5093324;28;20210;-86
2022/06/20 11:37:25;;;;;;;2.63;2.42;;;31.50;79.90;;;;;;5094487;28;20519;-86
2022/06/20 11:40:35;;;;;;;3.65;2.40;;;31.60;82.80;;;;;;5109164;28;20163;-86
2022/06/20 11:43:32;;;;;;;5.78;2.72;;;31.80;80.70;;;;;;5093385;28;20198;-85
2022/06/20 11:46:18;;;;;;;3.30;2.65;;;32.00;78.20;;;;;;5093380;28;20170;-85
2022/06/20 11:49:11;;;;;;;3.08;2.45;;;31.50;78.20;;;;;;5093777;28;20235;-84
2022/06/20 11:51:49;;;;;;;3.00;2.45;;;31.30;80.00;;;;;;5093732;28;20178;-85
2022/06/20 11:54:14;;;;;;;4.47;3.03;;;31.20;78.80;;;;;;5110186;28;20170;-85
2022/06/20 11:57:22;;;;;;;5.07;2.78;;;31.30;78.80;;;;;;5109582;28;20179;-84
2022/06/20 11:59:59;;;;;;;5.88;2.60;;;31.20;78.90;;;;;;5097073;28;20170;-86
2022/06/20 12:02:36;;;;;;;5.85;2.17;;;31.40;79.00;;;;;;5098766;28;20163;-84
2022/06/20 12:05:17;;;;;;;2.33;2.00;;;31.40;79.60;;;;;;5097839;28;20155;-85
2022/06/20 12:08:04;;;;;;;4.45;2.47;;;31.50;75.00;;;;;;5097237;28;20219;-84
2022/06/20 12:10:40;;;;;;;3.42;2.45;;;31.50;76.70;;;;;;5102428;28;20222;-86
2022/06/20 12:13:11;;;;;;;7.47;1.85;;;31.50;75.50;;;;;;5105885;28;20182;-85
2022/06/20 12:16:05;;;;;;;2.42;2.22;;;31.60;76.60;;;;;;5099159;28;20182;-85
2022/06/20 12:24:25;;;;;;;2.67;2.15;;;31.90;75.80;;;;;;5107429;28;20197;-85
2022/06/20 12:26:52;;;;;;;3.92;2.97;;;32.00;75.10;;;;;;5096641;28;20170;-86
2022/06/20 12:29:23;;;;;;;3.08;2.53;;;32.00;73.70;;;;;;5096960;28;20724;-86
2022/06/20 12:31:52;;;;;;;7.88;2.30;;;32.00;74.50;;;;;;5096596;28;20226;-86
2022/06/20 12:34:45;;;;;;;2.60;2.40;;;32.00;73.60;;;;;;5096336;28;20209;-86
2022/06/20 12:37:15;;;;;;;3.88;2.53;;;32.00;73.00;;;;;;5095958;28;20162;-85
2022/06/20 12:39:53;;;;;;;2.65;2.30;;;31.80;73.20;;;;;;5111986;28;20210;-85
2022/06/20 12:42:35;;;;;;;3.20;2.47;;;31.70;74.30;;;;;;5112139;28;20572;-85
2022/06/20 12:45:23;;;;;;;2.85;2.42;;;31.60;75.30;;;;;;5095980;28;20250;-85
2022/06/20 12:48:00;;;;;;;3.30;2.35;;;31.40;74.60;;;;;;5096089;28;20169;-86
2022/06/20 12:50:54;;;;;;;4.82;2.17;;;31.10;74.10;;;;;;5111718;28;20184;-85
2022/06/20 12:53:34;;;;;;;3.40;2.45;;;30.90;75.30;;;;;;5111481;28;20262;-85
2022/06/20 12:56:31;;;;;;;3.13;2.47;;;30.80;76.10;;;;;;5095632;28;20166;-85
2022/06/20 12:59:35;;;;;;;2.95;2.60;;;30.70;75.90;;;;;;5095662;28;20496;-85
2022/06/20 13:02:17;;;;;;;6.70;3.00;;;30.60;76.60;;;;;;5111271;28;20213;-84
2022/06/20 13:05:01;;;;;;;3.17;2.70;;;30.50;76.80;;;;;;5111726;28;20511;-83
2022/06/20 13:07:39;;;;;;;4.13;2.83;;;30.50;76.50;;;;;;5095572;28;20198;-84
2022/06/20 13:10:13;;;;;;;4.03;2.90;;;30.40;77.30;;;;;;5094346;28;20167;-84
2022/06/20 13:13:22;;;;;;;5.70;2.83;;;30.50;78.80;;;;;;5111121;28;20209;-85
2022/06/20 13:16:12;;;;;;;4.18;2.95;;;30.50;79.10;;;;;;5090097;28;20540;-86
2022/06/20 13:19:08;;;;;;;3.03;2.72;;;30.60;78.50;;;;;;5074988;28;20285;-86
2022/06/20 13:21:48;;;;;;;3.88;3.10;;;30.70;78.70;;;;;;5111263;28;20623;-85
2022/06/20 13:24:35;;;;;;;3.95;2.83;;;30.90;78.00;;;;;;5110810;28;20194;-86
2022/06/20 13:27:09;;;;;;;4.10;3.08;;;31.20;77.10;;;;;;5095060;28;20212;-86
2022/06/20 13:29:47;;;;;;;2.60;2.40;;;31.30;77.40;;;;;;5110780;28;20222;-86
2022/06/20 13:32:24;;;;;;;3.97;2.83;;;31.20;78.50;;;;;;5111638;28;20206;-86
2022/06/20 13:34:56;;;;;;;4.18;2.97;;;31.00;76.30;;;;;;5095608;28;20162;-85
2022/06/20 13:37:27;;;;;;;3.42;2.92;;;31.00;76.90;;;;;;5110941;28;20213;-85
2022/06/20 13:40:21;;;;;;;5.07;2.88;;;31.10;76.90;;;;;;5111075;28;20232;-86
2022/06/20 13:43:19;;;;;;;3.60;2.53;;;31.00;74.90;;;;;;5095481;28;20247;-86
2022/06/20 13:46:08;;;;;;;4.22;2.97;;;30.90;75.70;;;;;;5092781;28;20179;-86
2022/06/20 13:48:42;;;;;;;2.72;2.53;;;30.70;76.40;;;;;;5094969;28;20175;-85
2022/06/20 13:51:27;;;;;;;5.20;2.55;;;30.60;76.20;;;;;;5094763;28;20162;-85
2022/06/20 13:54:16;;;;;;;4.80;2.65;;;30.60;76.00;;;;;;5094837;28;20191;-85
2022/06/20 13:57:04;;;;;;;4.03;2.92;;;30.50;77.40;;;;;;5094632;28;20162;-84
2022/06/20 13:59:57;;;;;;;7.03;2.63;;;30.30;78.80;;;;;;5094899;28;20177;-86
2022/06/20 14:02:34;;;;;;;5.90;2.85;;;30.20;80.20;;;;;;5110425;28;20657;-85